Prostejov, Czech Republic
Current Conditions -  °F | °C
As of 3:30 PM on Friday 28 Nov 2014 (Local Time) from LKTB Reporting Station
Overcast Overcast  
Wind Chill: 30°   Ceiling: 1100
Heat Index: 36°   Visibility: 6mi
Dew Point: 30°   Wind: 7mph
Humidity: 81%   Direction: 120°ESE
Pressure: 30.06"   Gusts: NA
Location:  49.48°N, 17.12°E
Report Text: LKTB 281330Z 12006KT 9999 BKN011 OVC014 02/M01 Q1018 NOSIG
Loading
Personal Weather Stations






























Interactive Weather Map New forecast layout! Learn more

10-Day Weather Forecast

Advertisements
Track Severe Weather on mobile